Time;durP1;ratioP1;P1;durP2;ratioP2;P2;SDS_P1;SDS_P2;PMS_P1;PMS_P2;Temp;Humidity;BMP_temperature;BMP_pressure;BME280_temperature;BME280_humidity;BME280_pressure;Samples;Min_cycle;Max_cycle;Signal;HPM_P1;HPM_P2
2023/01/24 00:00:43;;;;;;;0.60;0.60;;;;;;;0.50;71.43;102809.47;5103936;28;20030;-75
2023/01/24 00:03:12;;;;;;;4.35;2.45;;;;;;;0.48;71.53;102819.59;5085906;28;20020;-74
2023/01/24 00:05:42;;;;;;;0.60;0.60;;;;;;;0.51;71.68;102820.59;5085811;28;20032;-73
2023/01/24 00:08:08;;;;;;;0.63;0.63;;;;;;;0.48;71.95;102811.03;5102759;28;20048;-75
2023/01/24 00:10:34;;;;;;;0.70;0.70;;;;;;;0.53;71.87;102812.25;5103516;28;20490;-74
2023/01/24 00:12:59;;;;;;;0.60;0.60;;;;;;;0.47;72.01;102810.16;5103891;28;20024;-74
2023/01/24 00:15:25;;;;;;;0.80;0.80;;;;;;;0.51;72.07;102811.28;5085737;28;20026;-75
2023/01/24 00:17:50;;;;;;;0.60;0.60;;;;;;;0.52;72.24;102828.38;5103592;28;20020;-75
2023/01/24 00:20:16;;;;;;;0.60;0.60;;;;;;;0.52;72.34;102823.25;5103856;28;20098;-73
2023/01/24 00:22:42;;;;;;;0.60;0.60;;;;;;;0.49;72.80;102823.94;5107243;28;20046;-75
2023/01/24 00:25:08;;;;;;;0.60;0.60;;;;;;;0.57;72.38;102821.03;5111364;28;20050;-74
2023/01/24 00:27:34;;;;;;;0.60;0.60;;;;;;;0.58;72.38;102820.25;5104161;28;20036;-73
2023/01/24 00:30:04;;;;;;;1.15;1.15;;;;;;;0.61;72.36;102807.69;5085546;28;20050;-75
2023/01/24 00:32:30;;;;;;;0.60;0.60;;;;;;;0.64;72.51;102799.38;5103553;28;20055;-75
2023/01/24 00:34:55;;;;;;;0.60;0.60;;;;;;;0.64;72.75;102792.56;5103708;28;20464;-74
2023/01/24 00:37:21;;;;;;;0.63;0.63;;;;;;;0.64;72.77;102795.13;5102619;28;20050;-75
2023/01/24 00:39:46;;;;;;;0.60;0.60;;;;;;;0.64;72.84;102792.56;5103799;28;20024;-74
2023/01/24 00:42:11;;;;;;;0.50;0.50;;;;;;;0.65;73.00;102779.03;5085053;28;20055;-74
2023/01/24 00:44:37;;;;;;;1.02;0.95;;;;;;;0.67;72.92;102774.88;5103886;28;20016;-74
2023/01/24 00:47:02;;;;;;;0.50;0.50;;;;;;;0.63;72.86;102788.25;5103420;28;20522;-74
2023/01/24 00:49:28;;;;;;;0.50;0.50;;;;;;;0.62;73.17;102783.91;5103632;28;20111;-74
2023/01/24 00:51:53;;;;;;;0.60;0.60;;;;;;;0.65;73.20;102790.91;5085244;28;20184;-74
2023/01/24 00:54:19;;;;;;;0.80;0.80;;;;;;;0.69;73.10;102796.34;5103558;28;20024;-74
2023/01/24 00:56:44;;;;;;;0.60;0.60;;;;;;;0.65;73.29;102794.34;5103449;28;20024;-73
2023/01/24 00:59:10;;;;;;;0.68;0.68;;;;;;;0.68;73.26;102794.56;5085211;28;20054;-74
2023/01/24 01:01:35;;;;;;;0.60;0.60;;;;;;;0.67;73.20;102782.56;5103360;28;20049;-75
2023/01/24 01:04:01;;;;;;;0.63;0.63;;;;;;;0.64;73.25;102778.91;5103581;28;20195;-73
2023/01/24 01:06:26;;;;;;;0.60;0.60;;;;;;;0.58;73.41;102774.22;5103377;28;20023;-74
2023/01/24 01:08:52;;;;;;;0.60;0.60;;;;;;;0.61;73.55;102771.88;5103567;28;20079;-73
2023/01/24 01:11:18;;;;;;;0.60;0.60;;;;;;;0.62;73.64;102773.69;5103804;28;20020;-74
2023/01/24 01:13:48;;;;;;;0.88;0.85;;;;;;;0.55;73.63;102763.78;5085200;28;20108;-74
2023/01/24 01:16:17;;;;;;;0.50;0.50;;;;;;;0.54;73.68;102765.47;5085232;28;20016;-74
2023/01/24 01:18:43;;;;;;;0.60;0.60;;;;;;;0.61;73.67;102772.78;5085146;28;20095;-73
2023/01/24 01:21:13;;;;;;;0.60;0.60;;;;;;;0.62;73.62;102771.13;5085308;28;20031;-74
2023/01/24 01:23:39;;;;;;;0.50;0.50;;;;;;;0.53;73.58;102762.81;5088700;28;20020;-74
2023/01/24 01:26:08;;;;;;;0.70;0.70;;;;;;;0.64;73.76;102782.34;5106834;28;20026;-74
2023/01/24 01:28:34;;;;;;;0.60;0.60;;;;;;;0.62;73.88;102773.69;5088563;28;20051;-74
2023/01/24 01:30:59;;;;;;;0.60;0.60;;;;;;;0.63;73.80;102775.47;5106748;28;20028;-73
2023/01/24 01:33:25;;;;;;;0.80;0.80;;;;;;;0.68;73.68;102779.22;5106790;28;20020;-74
2023/01/24 01:35:51;;;;;;;0.60;0.60;;;;;;;0.67;73.79;102774.88;5106669;28;20378;-74
2023/01/24 01:38:17;;;;;;;0.60;0.60;;;;;;;0.65;73.77;102773.91;5106926;28;20073;-74
2023/01/24 01:40:43;;;;;;;0.60;0.60;;;;;;;0.65;73.77;102781.56;5106575;28;20032;-74
2023/01/24 01:43:14;;;;;;;0.60;0.60;;;;;;;0.64;73.87;102776.34;5106850;28;20031;-74
2023/01/24 01:45:48;;;;;;;0.77;0.77;;;;;;;0.66;73.88;102769.66;5106649;28;20039;-74
2023/01/24 01:48:26;;;;;;;0.60;0.60;;;;;;;0.64;74.06;102771.25;5088546;28;20040;-74
2023/01/24 01:51:00;;;;;;;0.60;0.60;;;;;;;0.59;74.03;102755.56;5088197;28;20567;-74
2023/01/24 01:53:32;;;;;;;0.68;0.68;;;;;;;0.58;73.92;102754.69;5106489;28;20035;-74
2023/01/24 01:56:07;;;;;;;1.77;1.70;;;;;;;0.63;73.96;102760.13;5088113;28;20052;-73
2023/01/24 01:58:33;;;;;;;1.02;1.00;;;;;;;0.61;74.20;102766.78;5088356;28;20047;-75
2023/01/24 02:00:59;;;;;;;0.60;0.60;;;;;;;0.65;74.27;102789.25;5106146;28;20020;-75
2023/01/24 02:03:50;;;;;;;0.60;0.60;;;;;;;0.68;74.46;102793.69;5106228;28;20024;-74
2023/01/24 02:06:23;;;;;;;0.60;0.60;;;;;;;0.67;74.42;102792.78;5106210;28;20016;-73
2023/01/24 02:08:51;;;;;;;0.60;0.60;;;;;;;0.61;74.67;102789.78;5106311;28;20024;-74
2023/01/24 02:16:45;;;;;;;0.60;0.60;;;;;;;0.71;74.32;102782.00;5105866;28;20039;-75
2023/01/24 02:19:23;;;;;;;0.60;0.60;;;;;;;0.77;74.56;102804.56;5106154;28;20019;-74
2023/01/24 02:21:55;;;;;;;0.50;0.50;;;;;;;0.70;74.64;102802.34;5106108;28;20114;-74
2023/01/24 02:24:29;;;;;;;0.60;0.60;;;;;;;0.76;74.86;102812.13;5105917;28;20046;-74
2023/01/24 02:26:54;;;;;;;0.60;0.60;;;;;;;0.74;74.90;102805.22;5104525;28;20051;-75
2023/01/24 02:29:20;;;;;;;0.60;0.60;;;;;;;0.76;75.01;102796.78;5104728;28;20077;-74
2023/01/24 02:31:56;;;;;;;0.50;0.50;;;;;;;0.81;75.11;102800.56;5105829;28;20020;-74
2023/01/24 02:34:22;;;;;;;0.60;0.60;;;;;;;0.74;75.17;102779.66;5105635;28;20124;-75
2023/01/24 02:36:52;;;;;;;0.50;0.50;;;;;;;0.80;75.24;102783.44;5105605;28;20075;-76
2023/01/24 02:39:22;;;;;;;0.60;0.60;;;;;;;0.80;75.27;102786.00;5087279;28;20031;-74
2023/01/24 02:42:00;;;;;;;7.55;2.90;;;;;;;0.80;75.42;102783.44;5105482;28;20071;-75
2023/01/24 02:44:37;;;;;;;0.60;0.60;;;;;;;0.80;75.50;102784.31;5105742;28;20016;-74
2023/01/24 02:47:03;;;;;;;0.60;0.60;;;;;;;0.77;75.46;102765.31;5105614;28;20028;-75
2023/01/24 02:49:28;;;;;;;0.60;0.60;;;;;;;0.79;75.66;102771.41;5105424;28;20048;-75
2023/01/24 02:54:54;;;;;;;0.60;0.60;;;;;;;0.86;75.67;102794.09;5022583;28;20065;-75
2023/01/24 03:00:06;;;;;;;2.80;2.60;;;;;;;0.88;75.67;102789.97;5022763;28;20088;-74
2023/01/24 03:02:31;;;;;;;0.60;0.60;;;;;;;0.85;75.77;102776.97;5021971;28;20038;-75
2023/01/24 03:04:57;;;;;;;0.60;0.60;;;;;;;0.89;75.82;102772.97;5006137;28;20094;-73
2023/01/24 03:07:22;;;;;;;0.63;0.63;;;;;;;0.93;75.94;102780.06;5005843;28;20545;-73
2023/01/24 03:09:48;;;;;;;0.50;0.50;;;;;;;0.88;76.02;102769.50;5005858;28;20480;-70
2023/01/24 03:36:51;;;;;;;0.60;0.60;;;;;;;0.86;76.81;102727.59;5104620;28;20118;-76
2023/01/24 03:42:01;;;;;;;0.60;0.60;;;;;;;0.93;77.26;102727.22;5104336;28;20058;-76
2023/01/24 03:44:26;;;;;;;0.60;0.60;;;;;;;0.95;77.38;102719.66;5085479;28;20032;-76
2023/01/24 03:46:51;;;;;;;0.60;0.60;;;;;;;0.93;77.37;102713.53;5085981;28;20042;-76
2023/01/24 03:49:17;;;;;;;0.60;0.60;;;;;;;0.91;77.47;102704.91;5104271;28;20533;-76
2023/01/24 03:54:27;;;;;;;0.60;0.60;;;;;;;0.97;77.94;102721.56;5104534;28;20031;-76
2023/01/24 03:56:53;;;;;;;0.60;0.60;;;;;;;1.02;78.14;102723.53;5104390;28;20020;-75
2023/01/24 03:59:18;;;;;;;0.60;0.60;;;;;;;0.98;78.30;102715.66;5102999;28;20040;-77
2023/01/24 04:01:43;;;;;;;0.60;0.60;;;;;;;1.04;78.35;102712.63;5104432;28;20030;-75
2023/01/24 04:04:11;;;;;;;0.60;0.60;;;;;;;1.03;78.52;102705.72;5104243;28;20020;-77
2023/01/24 04:06:36;;;;;;;0.60;0.60;;;;;;;1.02;78.52;102697.97;5102834;28;20012;-77
2023/01/24 04:09:02;;;;;;;0.60;0.60;;;;;;;1.04;78.83;102696.41;5104195;28;20046;-75
2023/01/24 04:11:27;;;;;;;0.60;0.60;;;;;;;1.05;78.82;102693.03;5086020;28;20035;-76
2023/01/24 04:13:53;;;;;;;0.55;0.55;;;;;;;1.03;78.92;102689.50;5104243;28;20024;-76
2023/01/24 04:16:18;;;;;;;0.50;0.50;;;;;;;1.12;79.21;102697.78;5103936;28;20464;-76
2023/01/24 04:18:44;;;;;;;0.50;0.50;;;;;;;1.14;79.19;102690.22;5104059;28;20020;-76
2023/01/24 04:21:09;;;;;;;0.60;0.60;;;;;;;1.15;78.97;102681.78;5085749;28;20028;-76
2023/01/24 04:23:37;;;;;;;0.60;0.60;;;;;;;1.17;79.14;102685.31;5103996;28;20031;-77
2023/01/24 04:26:03;;;;;;;0.60;0.60;;;;;;;1.21;79.18;102680.53;5104215;28;20016;-76
2023/01/24 04:28:30;;;;;;;0.50;0.50;;;;;;;1.23;79.17;102673.81;5103814;28;20125;-76
2023/01/24 04:31:01;;;;;;;0.50;0.50;;;;;;;1.27;79.19;102671.47;5103598;28;20024;-76
2023/01/24 04:33:27;;;;;;;0.50;0.50;;;;;;;1.23;78.98;102668.69;5104044;28;20043;-78
2023/01/24 04:35:56;;;;;;;0.50;0.50;;;;;;;1.29;79.33;102683.59;5103905;28;20455;-77
2023/01/24 04:38:22;;;;;;;1.40;1.40;;;;;;;1.32;79.33;102681.22;5085808;28;20024;-76
2023/01/24 04:40:58;;;;;;;0.60;0.60;;;;;;;1.37;79.40;102689.22;5103558;28;20031;-75
2023/01/24 04:43:23;;;;;;;0.50;0.50;;;;;;;1.33;79.32;102676.97;5103943;28;20084;-75
2023/01/24 04:45:49;;;;;;;0.60;0.60;;;;;;;1.34;79.45;102678.78;5103895;28;20115;-76
2023/01/24 04:48:14;;;;;;;0.50;0.50;;;;;;;1.34;79.59;102677.06;5085628;28;20020;-77
2023/01/24 04:50:39;;;;;;;0.60;0.60;;;;;;;1.37;79.65;102686.66;5104531;28;20031;-76
2023/01/24 04:53:05;;;;;;;0.55;0.55;;;;;;;1.40;79.67;102681.75;5105012;28;20031;-80
2023/01/24 04:55:30;;;;;;;0.60;0.60;;;;;;;1.40;79.81;102681.75;5105657;28;20027;-77
2023/01/24 04:57:56;;;;;;;0.60;0.60;;;;;;;1.42;79.55;102685.25;5109028;28;20048;-78
2023/01/24 05:00:21;;;;;;;0.50;0.50;;;;;;;1.43;79.72;102686.16;5108983;28;20016;-78
2023/01/24 05:02:46;;;;;;;0.70;0.70;;;;;;;1.42;79.81;102697.19;5108477;28;20088;-78
2023/01/24 05:05:12;;;;;;;0.60;0.60;;;;;;;1.39;79.77;102697.00;5108790;28;20023;-78
2023/01/24 05:07:37;;;;;;;0.50;0.50;;;;;;;1.50;79.92;102710.50;5108740;28;20372;-79
2023/01/24 05:10:03;;;;;;;0.70;0.70;;;;;;;1.55;79.51;102704.03;5108869;28;20385;-68
2023/01/24 05:12:28;;;;;;;0.50;0.50;;;;;;;1.47;79.58;102694.16;5108740;28;20020;-75
2023/01/24 05:14:54;;;;;;;0.50;0.50;;;;;;;1.52;79.64;102701.25;5108625;28;20136;-75
2023/01/24 05:17:19;;;;;;;0.50;0.50;;;;;;;1.57;79.73;102711.00;5108301;28;20055;-75
2023/01/24 05:19:44;;;;;;;0.50;0.50;;;;;;;1.61;79.58;102709.56;5108509;28;20035;-74
2023/01/24 05:22:10;;;;;;;0.60;0.60;;;;;;;1.64;79.60;102711.41;5090430;28;20031;-76
2023/01/24 05:24:35;;;;;;;0.60;0.60;;;;;;;1.57;79.56;102700.78;5090223;28;20020;-75
2023/01/24 05:27:01;;;;;;;0.60;0.60;;;;;;;1.59;79.58;102708.56;5108512;28;20016;-74
2023/01/24 05:29:26;;;;;;;0.50;0.50;;;;;;;1.59;79.37;102703.44;5090199;28;20361;-74
2023/01/24 05:31:51;;;;;;;0.60;0.60;;;;;;;1.65;79.65;102726.88;5108211;28;20038;-74
2023/01/24 05:34:17;;;;;;;0.50;0.50;;;;;;;1.64;79.62;102712.31;5108218;28;20020;-74
2023/01/24 05:36:42;;;;;;;0.57;0.57;;;;;;;1.70;79.71;102715.28;5108173;28;20032;-74
2023/01/24 05:39:08;;;;;;;0.50;0.50;;;;;;;1.75;79.56;102714.66;5108098;28;20049;-74
2023/01/24 05:41:33;;;;;;;0.75;0.75;;;;;;;1.75;79.49;102720.69;5107953;28;20056;-73
2023/01/24 05:43:58;;;;;;;0.50;0.50;;;;;;;1.70;79.58;102715.28;5089783;28;20023;-74
2023/01/24 05:46:24;;;;;;;0.60;0.60;;;;;;;1.75;79.50;102730.03;5107883;28;20073;-71
2023/01/24 05:48:50;;;;;;;0.60;0.60;;;;;;;1.78;79.61;102740.47;5108160;28;20035;-73
2023/01/24 05:51:17;;;;;;;0.60;0.60;;;;;;;1.73;79.50;102728.28;5108042;28;20024;-75
2023/01/24 05:53:43;;;;;;;0.60;0.60;;;;;;;1.76;79.71;102732.69;5107870;28;20020;-74
2023/01/24 05:56:14;;;;;;;0.60;0.60;;;;;;;1.80;79.69;102736.34;5108032;28;20035;-74
2023/01/24 05:58:41;;;;;;;0.60;0.60;;;;;;;1.80;79.34;102724.44;5089678;28;20028;-74
2023/01/24 06:01:16;;;;;;;0.73;0.73;;;;;;;1.81;79.59;102721.09;5089367;28;20016;-78
2023/01/24 06:03:42;;;;;;;0.50;0.50;;;;;;;1.80;79.67;102718.44;5089263;28;20027;-74
2023/01/24 06:06:10;;;;;;;0.60;0.60;;;;;;;1.75;79.76;102714.66;5107868;28;20016;-76
2023/01/24 06:08:36;;;;;;;0.60;0.60;;;;;;;1.77;79.99;102723.34;5106952;28;20133;-74
2023/01/24 06:11:12;;;;;;;0.70;0.70;;;;;;;1.76;79.88;102721.59;5089226;28;20024;-75
2023/01/24 06:13:37;;;;;;;0.98;0.98;;;;;;;1.72;80.03;102711.16;5107582;28;20062;-75
2023/01/24 06:16:10;;;;;;;0.60;0.60;;;;;;;1.75;80.32;102719.78;5107654;28;20024;-75
2023/01/24 06:18:36;;;;;;;0.50;0.50;;;;;;;1.78;80.28;102727.69;5089608;28;20507;-76
2023/01/24 06:21:07;;;;;;;0.55;0.55;;;;;;;1.83;80.18;102723.75;5089858;28;20062;-76
2023/01/24 06:23:33;;;;;;;0.70;0.70;;;;;;;1.82;80.33;102722.00;5116867;28;20028;-77
2023/01/24 06:25:58;;;;;;;0.60;0.60;;;;;;;1.85;80.30;102727.31;5096970;28;20043;-75
2023/01/24 06:28:24;;;;;;;0.60;0.60;;;;;;;1.72;79.97;102706.03;5089105;28;20122;-75
2023/01/24 06:31:18;;;;;;;0.90;0.90;;;;;;;1.84;80.24;102728.97;5089143;28;20031;-75
2023/01/24 06:33:53;;;;;;;0.60;0.60;;;;;;;1.83;80.31;102721.19;5079924;28;20040;-74
2023/01/24 06:36:34;;;;;;;0.57;0.57;;;;;;;1.76;80.33;102712.22;5107339;28;20026;-74
2023/01/24 06:38:59;;;;;;;0.60;0.60;;;;;;;1.79;80.61;102719.22;5107048;28;20027;-75
2023/01/24 06:41:25;;;;;;;0.60;0.60;;;;;;;1.78;80.95;102713.22;5088579;28;20399;-77
2023/01/24 06:43:51;;;;;;;0.50;0.50;;;;;;;1.79;80.81;102716.66;5106744;28;20034;-76
2023/01/24 06:46:16;;;;;;;0.50;0.50;;;;;;;1.76;80.91;102719.91;5088354;28;20456;-75
2023/01/24 06:48:44;;;;;;;0.50;0.50;;;;;;;1.75;81.38;102715.56;5106834;28;20027;-75
2023/01/24 06:51:14;;;;;;;0.50;0.50;;;;;;;1.78;81.05;102705.53;5106928;28;20443;-75
2023/01/24 06:53:40;;;;;;;0.50;0.50;;;;;;;1.65;81.05;102678.22;5106981;28;20043;-75
2023/01/24 06:56:07;;;;;;;0.50;0.50;;;;;;;1.78;80.96;102687.59;5106644;28;20027;-75
2023/01/24 06:58:32;;;;;;;0.50;0.50;;;;;;;1.72;81.00;102676.94;5106688;28;20020;-71
2023/01/24 07:00:57;;;;;;;0.60;0.60;;;;;;;1.69;81.14;102669.94;5106676;28;20490;-73
2023/01/24 07:03:23;;;;;;;0.50;0.50;;;;;;;1.77;81.15;102680.72;5106486;28;20115;-77
2023/01/24 07:05:48;;;;;;;0.65;0.65;;;;;;;1.67;81.13;102671.53;5106586;28;20016;-76
2023/01/24 07:08:14;;;;;;;0.60;0.60;;;;;;;1.75;81.28;102696.75;5106609;28;20028;-75
2023/01/24 07:10:39;;;;;;;0.50;0.50;;;;;;;1.71;81.40;102686.31;5106314;28;20024;-78
2023/01/24 07:13:05;;;;;;;0.50;0.50;;;;;;;1.75;81.56;102701.88;5106233;28;20024;-77
2023/01/24 07:15:30;;;;;;;0.50;0.50;;;;;;;1.76;81.48;102709.66;5106450;28;20028;-77
2023/01/24 07:17:56;;;;;;;0.57;0.57;;;;;;;1.76;81.58;102701.09;5106246;28;20431;-77
2023/01/24 07:20:22;;;;;;;0.50;0.50;;;;;;;1.83;81.52;102690.44;5105392;28;20047;-76
2023/01/24 07:22:48;;;;;;;0.50;0.50;;;;;;;1.79;81.56;102686.78;5106312;28;20020;-77
2023/01/24 07:25:19;;;;;;;0.70;0.70;;;;;;;1.82;81.72;102686.13;5087952;28;20020;-76
2023/01/24 07:27:45;;;;;;;0.70;0.70;;;;;;;1.79;81.58;102696.19;5106425;28;20020;-76
2023/01/24 07:30:12;;;;;;;0.60;0.60;;;;;;;1.77;81.78;102690.06;5106556;28;20034;-77
2023/01/24 07:32:38;;;;;;;0.50;0.50;;;;;;;1.85;81.84;102714.50;5087970;28;20016;-75
2023/01/24 07:35:05;;;;;;;0.70;0.70;;;;;;;1.83;82.01;102713.50;5088006;28;20027;-76
2023/01/24 07:37:30;;;;;;;0.50;0.50;;;;;;;1.81;82.03;102699.69;5106223;28;20102;-76
2023/01/24 07:39:56;;;;;;;0.63;0.63;;;;;;;1.82;81.86;102686.13;5105861;28;20426;-77
2023/01/24 07:42:21;;;;;;;0.60;0.60;;;;;;;1.83;82.01;102699.03;5087544;28;20070;-75
2023/01/24 07:44:46;;;;;;;0.60;0.60;;;;;;;1.83;82.09;102704.16;5105852;28;20016;-76
2023/01/24 07:47:12;;;;;;;0.57;0.57;;;;;;;1.84;82.18;102711.03;5087520;28;20024;-77
2023/01/24 07:49:37;;;;;;;0.60;0.60;;;;;;;1.82;82.36;102706.63;5106349;28;20020;-77
2023/01/24 07:52:02;;;;;;;0.60;0.60;;;;;;;1.84;82.29;102707.59;5105953;28;20035;-77
2023/01/24 07:54:28;;;;;;;0.60;0.60;;;;;;;1.87;82.28;102710.34;5105666;28;20039;-75
2023/01/24 07:56:53;;;;;;;0.60;0.60;;;;;;;1.83;82.32;102690.44;5105776;28;20027;-76
2023/01/24 07:59:19;;;;;;;0.50;0.50;;;;;;;1.79;82.40;102691.06;5087538;28;20031;-78
2023/01/24 08:01:44;;;;;;;0.85;0.85;;;;;;;1.81;82.61;102705.72;5105833;28;20051;-78
2023/01/24 08:04:09;;;;;;;0.50;0.50;;;;;;;1.76;82.79;102701.09;5087288;28;20490;-76
2023/01/24 08:06:35;;;;;;;0.60;0.60;;;;;;;1.80;82.91;102706.53;5105687;28;20024;-76
2023/01/24 08:09:00;;;;;;;0.60;0.60;;;;;;;1.77;83.19;102701.19;5105549;28;20028;-76
2023/01/24 08:11:26;;;;;;;0.50;0.50;;;;;;;1.83;83.16;102716.06;5105469;28;20034;-76
2023/01/24 08:13:51;;;;;;;0.60;0.60;;;;;;;1.83;83.04;102705.81;5104144;28;20024;-76
2023/01/24 08:16:17;;;;;;;0.60;0.60;;;;;;;1.90;82.85;102714.78;5087251;28;20024;-76
2023/01/24 08:18:44;;;;;;;0.60;0.60;;;;;;;1.90;83.06;102709.69;5087560;28;20031;-77
2023/01/24 08:21:09;;;;;;;0.50;0.50;;;;;;;1.92;82.89;102708.97;5087382;28;20031;-76
2023/01/24 08:23:35;;;;;;;2.90;2.45;;;;;;;1.89;82.94;102698.53;5105338;28;20028;-77
2023/01/24 08:26:01;;;;;;;0.60;0.60;;;;;;;1.92;83.11;102708.97;5105406;28;20438;-76
2023/01/24 08:28:27;;;;;;;0.60;0.60;;;;;;;1.88;83.24;102699.31;5105515;28;20024;-75
2023/01/24 08:30:53;;;;;;;0.73;0.73;;;;;;;1.93;83.08;102707.31;5106967;28;20049;-78
2023/01/24 08:33:18;;;;;;;0.50;0.50;;;;;;;1.92;83.40;102691.03;5109339;28;20024;-76
2023/01/24 08:35:47;;;;;;;0.55;0.55;;;;;;;1.96;83.13;102700.72;5091359;28;20032;-78
2023/01/24 08:38:14;;;;;;;0.50;0.50;;;;;;;1.90;83.29;102707.13;5109404;28;20059;-76
2023/01/24 08:40:41;;;;;;;0.50;0.50;;;;;;;1.91;83.46;102696.97;5109423;28;20028;-78
2023/01/24 08:43:06;;;;;;;4.10;3.80;;;;;;;1.93;83.43;102703.06;5109032;28;20166;-77
2023/01/24 08:45:32;;;;;;;0.50;0.50;;;;;;;1.97;83.68;102716.94;5109467;28;20028;-77
2023/01/24 08:47:57;;;;;;;1.80;1.73;;;;;;;1.95;83.53;102716.00;5109004;28;20045;-77
2023/01/24 08:50:23;;;;;;;0.60;0.60;;;;;;;1.95;83.78;102721.97;5109259;28;20027;-76
2023/01/24 08:52:48;;;;;;;0.60;0.60;;;;;;;2.03;83.76;102717.34;5109329;28;20439;-76
2023/01/24 08:55:15;;;;;;;0.50;0.50;;;;;;;1.97;83.62;102707.59;5109332;28;20039;-75
2023/01/24 08:57:41;;;;;;;0.52;0.52;;;;;;;2.03;83.56;102706.22;5109303;28;20407;-77
2023/01/24 09:00:07;;;;;;;0.52;0.52;;;;;;;2.02;83.69;102696.75;5090929;28;20030;-76
2023/01/24 09:02:36;;;;;;;0.60;0.60;;;;;;;2.02;83.85;102714.69;5108948;28;20031;-76
2023/01/24 09:05:03;;;;;;;5.60;5.28;;;;;;;1.90;83.65;102691.75;5108924;28;20088;-76
2023/01/24 09:07:28;;;;;;;0.60;0.60;;;;;;;2.05;83.76;102707.19;5108874;28;20049;-76
2023/01/24 09:09:54;;;;;;;0.50;0.50;;;;;;;2.06;83.55;102706.44;5108881;28;20056;-76
2023/01/24 09:12:19;;;;;;;0.60;0.60;;;;;;;2.06;83.80;102697.03;5108828;28;20055;-76
2023/01/24 09:14:44;;;;;;;0.95;0.95;;;;;;;2.04;84.10;102700.31;5108604;28;20110;-75
2023/01/24 09:17:10;;;;;;;0.60;0.60;;;;;;;1.94;83.92;102663.84;5108627;28;20027;-76
2023/01/24 09:19:35;;;;;;;0.50;0.50;;;;;;;1.98;83.88;102668.38;5109051;28;20031;-76
2023/01/24 09:22:00;;;;;;;0.50;0.50;;;;;;;2.08;84.10;102695.47;5092998;28;20048;-74
2023/01/24 09:24:26;;;;;;;0.50;0.50;;;;;;;2.06;84.30;102691.91;5101230;28;20016;-78
2023/01/24 09:26:51;;;;;;;5.18;1.63;;;;;;;2.12;84.37;102691.44;5110743;28;20370;-77
2023/01/24 09:29:17;;;;;;;0.60;0.60;;;;;;;2.10;84.11;102686.22;5108535;28;20027;-75
2023/01/24 09:31:42;;;;;;;2.13;2.03;;;;;;;2.17;84.16;102691.72;5108183;28;20020;-73
2023/01/24 09:34:08;;;;;;;0.73;0.73;;;;;;;2.17;84.06;102690.03;5108366;28;20414;-76
2023/01/24 09:36:33;;;;;;;0.50;0.50;;;;;;;2.16;83.99;102689.94;5108403;28;20399;-76
2023/01/24 09:38:59;;;;;;;0.65;0.65;;;;;;;2.15;84.32;102691.63;5108210;28;20472;-77
2023/01/24 09:41:39;;;;;;;0.50;0.50;;;;;;;2.17;84.29;102684.91;5089615;28;20046;-76
2023/01/24 09:44:16;;;;;;;0.60;0.60;;;;;;;2.17;84.35;102689.16;5107548;28;20535;-74
2023/01/24 09:46:53;;;;;;;1.42;1.42;;;;;;;2.15;84.23;102685.59;5089873;28;20052;-77
2023/01/24 09:49:40;;;;;;;0.60;0.60;;;;;;;2.13;84.29;102677.81;5089772;28;20050;-76
2023/01/24 09:52:12;;;;;;;2.75;2.55;;;;;;;2.12;84.33;102676.06;5108254;28;20024;-77
2023/01/24 09:54:53;;;;;;;0.50;0.50;;;;;;;2.15;84.44;102683.06;5107855;28;20016;-76
2023/01/24 09:57:29;;;;;;;0.60;0.60;;;;;;;2.18;84.54;102681.56;5107877;28;20051;-76
2023/01/24 10:00:10;;;;;;;0.50;0.50;;;;;;;2.16;84.68;102667.75;5107906;28;20050;-77
2023/01/24 10:02:35;;;;;;;0.50;0.50;;;;;;;2.19;84.33;102659.41;5107953;28;20024;-76
2023/01/24 10:05:01;;;;;;;0.80;0.80;;;;;;;2.21;84.56;102668.94;5107957;28;20016;-76
2023/01/24 10:07:32;;;;;;;0.60;0.60;;;;;;;2.28;84.37;102675.34;5107764;28;20024;-75
2023/01/24 10:10:53;;;;;;;0.98;0.98;;;;;;;2.29;84.34;102677.13;5107589;28;20028;-76
2023/01/24 10:13:31;;;;;;;0.63;0.63;;;;;;;2.25;84.21;102671.72;5028143;28;20535;-74
2023/01/24 10:16:18;;;;;;;0.60;0.60;;;;;;;2.27;84.58;102662.44;5028299;28;20029;-76
2023/01/24 10:18:49;;;;;;;1.70;1.60;;;;;;;2.27;84.42;102662.44;5044995;28;20025;-76
2023/01/24 10:21:24;;;;;;;0.70;0.70;;;;;;;2.21;84.28;102651.00;5044935;28;20057;-74
2023/01/24 10:23:56;;;;;;;0.60;0.60;;;;;;;2.30;84.32;102660.94;5044956;28;20025;-73
2023/01/24 10:26:48;;;;;;;0.50;0.50;;;;;;;2.33;84.61;102662.81;5045166;28;20025;-71
2023/01/24 10:29:19;;;;;;;1.48;1.48;;;;;;;2.28;84.49;102657.41;5023695;28;20100;-75
2023/01/24 10:32:16;;;;;;;0.60;0.60;;;;;;;2.27;84.54;102653.06;5044732;28;20037;-76
2023/01/24 10:34:46;;;;;;;1.38;1.23;;;;;;;2.33;84.62;102661.13;5044600;28;20037;-76
2023/01/24 10:37:22;;;;;;;0.50;0.50;;;;;;;2.30;84.63;102660.94;5027964;28;20060;-77
2023/01/24 10:39:47;;;;;;;0.60;0.60;;;;;;;2.31;84.62;102652.47;5044501;28;20037;-76
2023/01/24 10:42:27;;;;;;;0.50;0.50;;;;;;;2.35;84.91;102648.41;5034048;28;20607;-75
2023/01/24 10:44:59;;;;;;;0.50;0.50;;;;;;;2.32;84.75;102640.53;5024533;28;20445;-75
2023/01/24 10:47:37;;;;;;;0.60;0.60;;;;;;;2.31;84.77;102642.22;5047959;28;20469;-75
2023/01/24 10:50:08;;;;;;;0.80;0.80;;;;;;;2.31;85.04;102638.75;5066649;28;20104;-76
2023/01/24 10:52:34;;;;;;;0.73;0.73;;;;;;;2.33;84.76;102634.63;5066787;28;20075;-75
2023/01/24 10:55:01;;;;;;;0.50;0.50;;;;;;;2.35;84.96;102633.03;5066174;28;20045;-75
2023/01/24 10:57:33;;;;;;;1.60;1.50;;;;;;;2.34;84.87;102631.25;5065314;28;20028;-75
2023/01/24 11:00:05;;;;;;;;;;;;;;;2.39;84.97;102635.00;5065690;28;20039;-73
2023/01/24 11:02:35;;;;;;;0.57;0.57;;;;;;;2.28;85.14;102626.66;5066960;28;19943;-72
2023/01/24 11:05:06;;;;;;;0.73;0.73;;;;;;;2.28;85.13;102628.31;5066232;28;20546;-74
2023/01/24 11:07:32;;;;;;;0.60;0.60;;;;;;;2.28;85.20;102629.22;5066338;28;20029;-74
2023/01/24 11:10:11;;;;;;;0.50;0.50;;;;;;;2.30;85.41;102640.44;5066276;28;20496;-73
2023/01/24 11:12:36;;;;;;;0.50;0.50;;;;;;;2.33;85.82;102647.44;5066196;28;20032;-73
2023/01/24 11:15:02;;;;;;;0.60;0.60;;;;;;;2.27;85.71;102635.13;5064668;28;20039;-71
2023/01/24 11:17:34;;;;;;;0.63;0.63;;;;;;;2.35;85.59;102635.59;5065969;28;20035;-72
2023/01/24 11:20:28;;;;;;;0.50;0.50;;;;;;;2.42;85.71;102640.31;5066199;28;20092;-73
2023/01/24 11:23:05;;;;;;;0.50;0.50;;;;;;;2.39;85.66;102627.31;5056750;28;20036;-73
2023/01/24 11:25:31;;;;;;;0.50;0.50;;;;;;;2.38;85.49;102630.66;5065675;28;20489;-73
2023/01/24 11:27:56;;;;;;;0.50;0.50;;;;;;;2.42;85.68;102624.94;5065707;28;20047;-74
2023/01/24 11:30:22;;;;;;;0.98;0.98;;;;;;;2.45;85.62;102630.25;5065603;28;20064;-75
2023/01/24 11:32:50;;;;;;;0.50;0.50;;;;;;;2.47;85.63;102622.66;5065409;28;20025;-73
2023/01/24 11:35:34;;;;;;;0.50;0.50;;;;;;;2.44;85.56;102607.97;5064102;28;20486;-73
2023/01/24 11:38:02;;;;;;;0.60;0.60;;;;;;;2.48;85.59;102620.19;5064202;28;20090;-72
2023/01/24 11:40:40;;;;;;;0.50;0.50;;;;;;;2.50;85.72;102616.81;5065633;28;20021;-73
2023/01/24 11:43:44;;;;;;;0.82;0.82;;;;;;;2.49;85.80;102613.38;5063984;28;20056;-72
2023/01/24 11:46:29;;;;;;;0.98;0.98;;;;;;;2.50;85.68;102612.56;4987478;28;20102;-73
2023/01/24 11:49:10;;;;;;;0.50;0.50;;;;;;;2.53;85.74;102612.75;5003726;28;20034;-73
2023/01/24 11:51:44;;;;;;;0.50;0.50;;;;;;;2.56;85.53;102615.50;4987387;28;20034;-73
2023/01/24 11:54:45;;;;;;;0.50;0.50;;;;;;;2.56;85.70;102612.03;5003653;28;20094;-73
2023/01/24 11:57:17;;;;;;;0.60;0.60;;;;;;;2.55;85.49;102607.72;4964577;29;20047;-73
2023/01/24 12:00:03;;;;;;;0.60;0.60;;;;;;;2.54;85.76;102603.41;4964660;29;20031;-73
2023/01/24 12:03:07;;;;;;;0.52;0.52;;;;;;;2.56;85.80;102594.09;4964562;28;20031;-75
2023/01/24 12:06:27;;;;;;;0.57;0.57;;;;;;;2.57;85.70;102588.19;4964062;28;20027;-72
2023/01/24 12:09:01;;;;;;;0.50;0.50;;;;;;;2.51;85.78;102588.69;4888860;29;20061;-73
2023/01/24 12:11:37;;;;;;;0.50;0.50;;;;;;;2.51;85.76;102591.25;4888808;29;20041;-73
2023/01/24 12:14:36;;;;;;;0.60;0.60;;;;;;;2.53;86.03;102584.56;4904322;29;20040;-73
2023/01/24 12:17:05;;;;;;;0.50;0.50;;;;;;;2.54;85.86;102585.44;4898882;29;20040;-73
2023/01/24 12:20:14;;;;;;;0.45;0.45;;;;;;;2.55;86.08;102579.50;4907603;29;20036;-73
2023/01/24 12:22:41;;;;;;;0.50;0.50;;;;;;;2.47;86.12;102562.00;4907981;29;20036;-73
2023/01/24 12:25:25;;;;;;;0.60;0.60;;;;;;;2.50;86.30;102580.91;4909986;29;20514;-73